Flight Track Log - Related Links

Times and Time Zones

All times are in EDT time to prevent confusion due to time zone crossing. See the EJA929 flight status page for this flight to view local times or setup timezone preferences in your user account.

Time Position Orientation Groundspeed Altitude Reporting Facility
EDT Latitude Longitude Course Direction KTS MPH feet Rate Location/Type
Fri 11:38:30 AM 51.0667 -114.0333 170° South 170 196 3,800  Level Edmonton Center
Fri 11:39:30 AM 51.0167 -114.0500 192° South 190 219 7,400 3,300 Climbing Edmonton Center
Fri 11:40:30 AM 50.9500 -114.0333 171° South 290 334 10,400 2,350 Climbing Edmonton Center
Fri 11:41:30 AM 50.8500 -114.0167 174° South 340 391 12,100 1,750 Climbing Edmonton Center
Fri 11:42:30 AM 50.7500 -113.9667 162° South 370 426 13,900 1,700 Climbing Edmonton Center
Fri 11:43:30 AM 50.6500 -113.9167 162° South 380 437 15,500 1,650 Climbing Edmonton Center
Fri 11:44:00 AM 49.9774 -113.8499 170° South  Level Estimated
Fri 11:44:30 AM 50.5500 -113.9000 174° South 390 449 17,200  Level Edmonton Center
Fri 11:45:30 AM 50.4333 -113.8500 165° South 400 460 18,700 1,450 Climbing Edmonton Center
Fri 11:46:30 AM 50.3167 -113.8167 170° South 410 472 20,100 1,550 Climbing Edmonton Center
Fri 11:47:30 AM 50.2000 -113.7667 165° South 410 472 21,800 1,600 Climbing Edmonton Center
Fri 11:48:30 AM 50.0833 -113.7500 175° South 420 483 23,300 1,613 Climbing Edmonton Center
Fri 11:49:29 AM 49.9667 -113.7333 175° South 430 495 25,000 1,664 Climbing Edmonton Center
Fri 11:50:29 AM 49.8333 -113.7000 171° South 440 506 26,600 1,550 Climbing Edmonton Center
Fri 11:51:29 AM 49.7167 -113.6833 175° South 450 518 28,100 1,550 Climbing Edmonton Center
Fri 11:52:29 AM 49.5833 -113.6500 171° South 460 529 29,700 1,500 Climbing Edmonton Center
Fri 11:53:29 AM 49.4833 -113.6000 162° South 470 541 31,100 1,950 Climbing Edmonton Center
Fri 11:54:29 AM 49.3333 -113.5833 176° South 470 541 33,600 2,350 Climbing Edmonton Center
Fri 11:55:29 AM 49.2167 -113.5500 169° South 470 541 35,800 2,281 Climbing Edmonton Center
Fri 11:56:30 AM 49.0833 -113.5333 175° South 460 529 38,200 1,983 Climbing Edmonton Center
Fri 11:57:30 AM 48.9667 -113.5167 175° South 450 518 39,800 1,400 Climbing Edmonton Center
Fri 11:58:30 AM 48.8333 -113.4833 171° South 460 529 41,000 600 Climbing Edmonton Center
Fri 11:59:30 AM 48.7000 -113.4667 175° South 470 541 41,000  Level Edmonton Center
Fri 12:00:30 PM 48.5667 -113.4333 171° South 490 564 41,000  Level Edmonton Center
Fri 12:01:30 PM 48.4167 -113.4000 172° South 510 587 41,000  Level Edmonton Center
Fri 12:02:29 PM 48.2833 -113.3667 171° South 510 587 41,000  Level Edmonton Center
Fri 12:03:30 PM 48.1333 -113.3333 172° South 520 598 41,000  Level Edmonton Center
Fri 12:04:30 PM 48.0000 -113.3000 171° South 510 587 41,000  Level Edmonton Center
Fri 12:05:30 PM 47.8500 -113.2833 176° South 520 598 41,000  Level Edmonton Center
Fri 12:06:30 PM 47.7000 -113.2500 171° South 510 587 41,000  Level Edmonton Center
Fri 12:07:00 PM 47.6803 -113.2264 141° Southeast 519 597 41,000  Level Salt Lake Center
Fri 12:08:02 PM 47.5381 -113.1981 172° South 517 595 41,000  Level Salt Lake Center
Fri 12:09:04 PM 47.3947 -113.1714 173° South 518 596 41,000  Level Salt Lake Center
Fri 12:10:06 PM 47.2544 -113.1442 172° South 510 587 41,000  Level Salt Lake Center
Fri 12:11:08 PM 47.0869 -113.1108 172° South 507 583 41,000  Level Salt Lake Center
Fri 12:12:10 PM 46.9469 -113.0847 173° South 507 583 41,000  Level Salt Lake Center
Fri 12:13:12 PM 46.8083 -113.0586 173° South 505 581 41,000  Level Salt Lake Center
Fri 12:14:14 PM 46.6531 -113.0286 172° South 504 580 41,000  Level Salt Lake Center
Fri 12:15:17 PM 46.5147 -113.0031 173° South 502 578 41,000  Level Salt Lake Center
Fri 12:16:18 PM 46.3769 -112.9775 173° South 506 582 41,000  Level Salt Lake Center
Fri 12:17:20 PM 46.2386 -112.9517 173° South 504 580 41,000  Level Salt Lake Center
Fri 12:18:22 PM 46.1003 -112.9269 173° South 502 578 41,000  Level Salt Lake Center
Fri 12:19:24 PM 45.9347 -112.8961 173° South 501 577 41,000  Level Salt Lake Center
Fri 12:20:26 PM 45.7975 -112.8689 172° South 500 575 41,000  Level Salt Lake Center
Fri 12:21:28 PM 45.6608 -112.8456 173° South 497 572 41,000  Level Salt Lake Center
Fri 12:22:30 PM 45.5253 -112.8183 172° South 495 570 41,000  Level Salt Lake Center
Fri 12:23:32 PM 45.3892 -112.7956 173° South 494 568 41,000  Level Salt Lake Center
Fri 12:24:35 PM 45.2450 -112.7681 172° South 497 572 41,000  Level Salt Lake Center
Fri 12:25:37 PM 45.0908 -112.7403 173° South 500 575 41,000  Level Salt Lake Center
Fri 12:26:39 PM 44.9564 -112.7161 173° South 506 582 41,000  Level Salt Lake Center
Fri 12:27:41 PM 44.7997 -112.6875 173° South 509 586 41,000  Level Salt Lake Center
Fri 12:28:43 PM 44.6650 -112.6639 173° South 510 587 41,000  Level Salt Lake Center
Fri 12:29:45 PM 44.5089 -112.6361 173° South 508 585 41,000  Level Salt Lake Center
Fri 12:30:47 PM 44.3772 -112.6133 173° South 503 579 41,000  Level Salt Lake Center
Fri 12:31:49 PM 44.2228 -112.5869 173° South 502 578 41,000  Level Salt Lake Center
Fri 12:32:51 PM 44.0900 -112.5622 172° South 504 580 41,000  Level Salt Lake Center
Fri 12:33:53 PM 43.9350 -112.5364 173° South 503 579 41,000  Level Salt Lake Center
Fri 12:34:55 PM 43.8033 -112.5136 173° South 501 577 41,000  Level Salt Lake Center
Fri 12:35:57 PM 43.6492 -112.4856 172° South 502 578 41,000  Level Salt Lake Center
Fri 12:36:59 PM 43.5172 -112.4628 173° South 500 575 41,000  Level Salt Lake Center
Fri 12:38:01 PM 43.3633 -112.4364 173° South 499 574 41,000  Level Salt Lake Center
Fri 12:39:03 PM 43.2311 -112.4136 173° South 499 574 41,000  Level Salt Lake Center
Fri 12:40:05 PM 43.0778 -112.3867 173° South 499 574 41,000  Level Salt Lake Center
Fri 12:41:07 PM 42.9461 -112.3658 173° South 498 573 41,000  Level Salt Lake Center
Fri 12:42:09 PM 42.7939 -112.3397 173° South 495 570 41,000  Level Salt Lake Center
Fri 12:43:11 PM 42.6697 -112.3214 174° South 495 570 41,000  Level Salt Lake Center
Fri 12:44:13 PM 42.5319 -112.3000 173° South 499 574 41,000  Level Salt Lake Center
Fri 12:45:15 PM 42.3661 -112.2753 174° South 501 577 41,000  Level Salt Lake Center
Fri 12:46:17 PM 42.2292 -112.2694 178° South 496 571 41,000  Level Salt Lake Center
Fri 12:47:19 PM 42.0931 -112.2722 181° South 491 565 41,000  Level Salt Lake Center
Fri 12:48:21 PM 41.9567 -112.2733 180° South 491 565 41,000  Level Salt Lake Center
Fri 12:49:23 PM 41.8192 -112.2739 180° South 494 568 41,000  Level Salt Lake Center
Fri 12:50:25 PM 41.6825 -112.2747 180° South 493 567 41,000  Level Salt Lake Center
Fri 12:51:27 PM 41.5186 -112.2764 180° South 494 568 41,000  Level Salt Lake Center
Fri 12:52:30 PM 41.3839 -112.2769 180° South 490 564 41,000  Level Salt Lake Center
Fri 12:53:32 PM 41.2481 -112.2781 180° South 492 566 41,000  Level Salt Lake Center
Fri 12:54:34 PM 41.1131 -112.2786 180° South 492 566 41,000  Level Salt Lake Center
Fri 12:55:36 PM 40.9511 -112.2803 180° South 490 564 41,000  Level Salt Lake Center
Fri 12:56:38 PM 40.8156 -112.2817 180° South 492 566 41,000  Level Salt Lake Center
Fri 12:57:40 PM 40.6806 -112.2828 180° South 490 564 41,000  Level Salt Lake Center
Fri 12:58:42 PM 40.5461 -112.2839 180° South 486 559 41,000  Level Salt Lake Center
Fri 12:59:44 PM 40.4122 -112.2847 180° South 485 558 41,000  Level Salt Lake Center
Fri 01:00:46 PM 40.2489 -112.2864 180° South 490 564 41,000  Level Salt Lake Center
Fri 01:01:48 PM 40.1131 -112.2867 180° South 489 563 41,000  Level Salt Lake Center
Fri 01:02:50 PM 39.9778 -112.2886 181° South 489 563 41,000  Level Salt Lake Center
Fri 01:03:52 PM 39.8425 -112.2906 181° South 488 562 41,000  Level Salt Lake Center
Fri 01:04:54 PM 39.7067 -112.2917 180° South 489 563 41,000  Level Salt Lake Center
Fri 01:05:56 PM 39.5700 -112.2908 180° South 490 564 41,000  Level Salt Lake Center
Fri 01:06:58 PM 39.4056 -112.2936 181° South 493 567 41,000  Level Salt Lake Center
Fri 01:08:00 PM 39.2719 -112.2939 180° South 482 555 41,000  Level Salt Lake Center
Fri 01:09:02 PM 39.1433 -112.2947 180° South 487 560 41,000  Level Salt Lake Center
Fri 01:10:04 PM 39.0064 -112.2956 180° South 492 566 41,000  Level Salt Lake Center
Fri 01:11:06 PM 38.8417 -112.2978 181° South 493 567 41,000  Level Salt Lake Center
Fri 01:12:08 PM 38.7036 -112.2978 180° South 495 570 41,000  Level Salt Lake Center
Fri 01:13:11 PM 38.5672 -112.2994 181° South 492 566 41,000  Level Salt Lake Center
Fri 01:14:13 PM 38.4300 -112.2997 180° South 492 566 41,000  Level Salt Lake Center
Fri 01:15:15 PM 38.2933 -112.2992 180° South 491 565 41,000  Level Salt Lake Center
Fri 01:16:17 PM 38.1581 -112.3006 180° South 487 560 41,000  Level Salt Lake Center
Fri 01:17:19 PM 37.9953 -112.3011 180° South 486 559 41,000 -435 Level Salt Lake Center
Fri 01:18:21 PM 37.8594 -112.3022 180° South 486 559 40,100 -919 Descending Salt Lake Center
Fri 01:19:23 PM 37.7244 -112.3036 180° South 483 556 39,100 -968 Descending Salt Lake Center
Fri 01:20:25 PM 37.5886 -112.3081 181° South 483 556 38,100 -968 Descending Salt Lake Center
Fri 01:21:27 PM 37.4503 -112.3175 183° South 489 563 37,100 -968 Descending Salt Lake Center
Fri 01:22:29 PM 37.3128 -112.3256 183° South 491 565 36,100 -968 Descending Salt Lake Center
Fri 01:23:31 PM 37.1753 -112.3350 183° South 491 565 35,100 -968 Descending Salt Lake Center
Fri 01:24:33 PM 37.0344 -112.3436 183° South 498 573 34,100 -900 Descending Salt Lake Center
Fri 01:25:51 PM 36.8375 -112.3553 183° South 504 580 33,000 -471 Descending Los Angeles Center
Fri 01:26:53 PM 36.6939 -112.3658 183° South 516 594 33,000  Level Los Angeles Center
Fri 01:27:55 PM 36.5525 -112.3731 182° South 509 586 33,000  Level Los Angeles Center
Fri 01:28:57 PM 36.4103 -112.3819 183° South 510 587 33,000  Level Los Angeles Center
Fri 01:29:59 PM 36.2414 -112.3914 183° South 506 582 33,000  Level Los Angeles Center
Fri 01:31:01 PM 36.1003 -112.4011 183° South 506 582 33,000 -290 Level Los Angeles Center
Fri 01:32:03 PM 35.9603 -112.4064 182° South 503 579 32,400 -768 Descending Los Angeles Center
Fri 01:33:06 PM 35.8250 -112.4119 182° South 510 587 31,400 -960 Descending Los Angeles Center
Fri 01:34:08 PM 35.6831 -112.4200 183° South 511 588 30,400 -1,065 Descending Los Angeles Center
Fri 01:35:10 PM 35.5106 -112.4253 181° South 514 592 29,200 -677 Descending Los Angeles Center
Fri 01:36:12 PM 35.3711 -112.4003 172° South 507 583 29,000 -97 Descending Los Angeles Center
Fri 01:37:14 PM 35.2322 -112.3725 171° South 505 581 29,000 -145 Level Los Angeles Center
Fri 01:38:16 PM 35.0942 -112.3439 170° South 503 579 28,700 -581 Descending Los Angeles Center
Fri 01:39:18 PM 34.9567 -112.3158 171° South 501 577 27,800 -919 Descending Los Angeles Center
Fri 01:40:20 PM 34.8211 -112.2883 171° South 495 570 26,800 -1,056 Descending Albuquerque Center
Fri 01:41:23 PM 34.6717 -112.2578 170° South 482 555 25,600 -1,210 Descending Albuquerque Center
Fri 01:42:24 PM 34.5406 -112.2294 170° South 479 551 24,300 -1,756 Descending Albuquerque Center
Fri 01:43:26 PM 34.4217 -112.2050 170° South 443 510 22,000 -2,081 Descending Albuquerque Center
Fri 01:44:28 PM 34.3183 -112.1833 170° South 394 453 20,000 -2,032 Descending Albuquerque Center
Fri 01:45:30 PM 34.2111 -112.1622 171° South 335 386 17,800 -1,839 Descending Albuquerque Center
Fri 01:46:32 PM 34.1275 -112.1436 170° South 308 354 16,200 -1,548 Descending Albuquerque Center
Fri 01:47:34 PM 34.0431 -112.1389 177° South 305 351 14,600 -1,548 Descending Albuquerque Center
Fri 01:48:36 PM 33.9636 -112.1497 186° South 293 337 13,000 -1,452 Descending Albuquerque Center
Fri 01:49:38 PM 33.8856 -112.1600 186° South 286 329 11,600 -1,355 Descending Albuquerque Center
Fri 01:50:40 PM 33.8089 -112.1767 190° South 282 325 10,200 -1,452 Descending Albuquerque Center
Fri 01:51:42 PM 33.7197 -112.1956 190° South 273 314 8,600 -1,403 Descending Albuquerque Center
Fri 01:52:44 PM 33.6572 -112.2094 190° South 234 269 7,300 -1,306 Descending Albuquerque Center
Fri 01:53:46 PM 33.5964 -112.2208 189° South 223 257 5,900 -629 Descending Albuquerque Center
Fri 01:54:48 PM 33.5356 -112.2428 197° South 228 262 6,000  Climbing Albuquerque Center
Fri 01:55:50 PM 33.4789 -112.2589 193° South 210 242 5,900 -919 Descending Albuquerque Center
Fri 01:56:52 PM 33.4303 -112.2111 141° Southeast 195 224 4,100 -1,403 Descending Albuquerque Center
Fri 01:57:54 PM 33.4283 -112.1508 92° East 182 209 3,000 -968 Descending Albuquerque Center
Fri 01:58:56 PM 33.4289 -112.0892 89° East 185 213 2,100 -774 Descending Albuquerque Center
Fri 01:59:58 PM 33.4292 -112.0431 90° East 137 158 1,400 -484 Descending Albuquerque Center
Fri 02:01:00 PM 33.4294 -112.0011 90° East 134 154 1,100 -290 Descending Albuquerque Center

Login

Don't have an account? Register now (free) for customized features, flight alerts, and more!